sensor_id;sensor_type;location;lat;lon;timestamp;P1;durP1;ratioP1;P2;durP2;ratioP2
56720;SDS011;53183;47.412;18.884;2023-12-07T00:00:50;1.12;;;0.70;;
56720;SDS011;53183;47.412;18.884;2023-12-07T00:03:20;0.82;;;0.52;;
56720;SDS011;53183;47.412;18.884;2023-12-07T00:05:49;1.62;;;0.50;;
56720;SDS011;53183;47.412;18.884;2023-12-07T00:08:17;3.00;;;0.90;;
56720;SDS011;53183;47.412;18.884;2023-12-07T00:10:47;1.17;;;0.52;;
56720;SDS011;53183;47.412;18.884;2023-12-07T00:13:16;3.53;;;0.88;;
56720;SDS011;53183;47.412;18.884;2023-12-07T00:15:47;1.40;;;0.85;;
56720;SDS011;53183;47.412;18.884;2023-12-07T00:18:15;1.08;;;0.60;;
56720;SDS011;53183;47.412;18.884;2023-12-07T00:20:44;2.03;;;0.77;;
56720;SDS011;53183;47.412;18.884;2023-12-07T00:23:15;1.62;;;1.00;;
56720;SDS011;53183;47.412;18.884;2023-12-07T00:25:46;1.60;;;0.73;;
56720;SDS011;53183;47.412;18.884;2023-12-07T00:28:16;2.75;;;1.05;;
56720;SDS011;53183;47.412;18.884;2023-12-07T00:30:45;1.40;;;0.88;;
56720;SDS011;53183;47.412;18.884;2023-12-07T00:33:13;1.40;;;0.70;;
56720;SDS011;53183;47.412;18.884;2023-12-07T00:35:42;1.40;;;0.90;;
56720;SDS011;53183;47.412;18.884;2023-12-07T00:38:11;1.65;;;0.82;;
56720;SDS011;53183;47.412;18.884;2023-12-07T00:40:41;0.85;;;0.65;;
56720;SDS011;53183;47.412;18.884;2023-12-07T00:43:11;2.95;;;2.15;;
56720;SDS011;53183;47.412;18.884;2023-12-07T00:45:39;0.95;;;0.62;;
56720;SDS011;53183;47.412;18.884;2023-12-07T00:48:07;0.82;;;0.60;;
56720;SDS011;53183;47.412;18.884;2023-12-07T00:50:36;2.97;;;0.88;;
56720;SDS011;53183;47.412;18.884;2023-12-07T00:53:04;3.55;;;1.20;;
56720;SDS011;53183;47.412;18.884;2023-12-07T00:55:34;2.40;;;1.52;;
56720;SDS011;53183;47.412;18.884;2023-12-07T00:58:03;2.30;;;1.42;;
56720;SDS011;53183;47.412;18.884;2023-12-07T01:00:32;1.60;;;0.80;;
56720;SDS011;53183;47.412;18.884;2023-12-07T01:02:59;1.77;;;1.17;;
56720;SDS011;53183;47.412;18.884;2023-12-07T01:05:33;2.65;;;1.48;;
56720;SDS011;53183;47.412;18.884;2023-12-07T01:08:02;1.92;;;1.23;;
56720;SDS011;53183;47.412;18.884;2023-12-07T01:10:31;2.35;;;1.40;;
56720;SDS011;53183;47.412;18.884;2023-12-07T01:13:00;2.00;;;1.08;;
56720;SDS011;53183;47.412;18.884;2023-12-07T01:15:28;3.17;;;1.37;;
56720;SDS011;53183;47.412;18.884;2023-12-07T01:17:57;2.22;;;0.98;;
56720;SDS011;53183;47.412;18.884;2023-12-07T01:20:25;2.45;;;1.35;;
56720;SDS011;53183;47.412;18.884;2023-12-07T01:22:53;1.50;;;1.02;;
56720;SDS011;53183;47.412;18.884;2023-12-07T01:25:22;2.37;;;1.02;;
56720;SDS011;53183;47.412;18.884;2023-12-07T01:27:51;1.50;;;0.95;;
56720;SDS011;53183;47.412;18.884;2023-12-07T01:30:19;2.85;;;1.60;;
56720;SDS011;53183;47.412;18.884;2023-12-07T01:32:48;1.73;;;1.12;;
56720;SDS011;53183;47.412;18.884;2023-12-07T01:35:16;2.37;;;1.25;;
56720;SDS011;53183;47.412;18.884;2023-12-07T01:37:44;2.15;;;1.23;;
56720;SDS011;53183;47.412;18.884;2023-12-07T01:40:16;1.55;;;1.05;;
56720;SDS011;53183;47.412;18.884;2023-12-07T01:42:49;1.80;;;1.08;;
56720;SDS011;53183;47.412;18.884;2023-12-07T01:45:19;2.62;;;1.40;;
56720;SDS011;53183;47.412;18.884;2023-12-07T01:47:49;2.20;;;1.48;;
56720;SDS011;53183;47.412;18.884;2023-12-07T01:50:22;1.33;;;0.95;;
56720;SDS011;53183;47.412;18.884;2023-12-07T01:52:54;1.15;;;0.88;;
56720;SDS011;53183;47.412;18.884;2023-12-07T01:55:29;1.20;;;0.90;;
56720;SDS011;53183;47.412;18.884;2023-12-07T01:58:00;1.75;;;1.10;;
56720;SDS011;53183;47.412;18.884;2023-12-07T02:00:30;1.52;;;1.08;;
56720;SDS011;53183;47.412;18.884;2023-12-07T02:03:00;1.55;;;0.80;;
56720;SDS011;53183;47.412;18.884;2023-12-07T02:05:36;1.12;;;0.90;;
56720;SDS011;53183;47.412;18.884;2023-12-07T02:08:07;2.08;;;0.73;;
56720;SDS011;53183;47.412;18.884;2023-12-07T02:10:35;1.37;;;1.08;;
56720;SDS011;53183;47.412;18.884;2023-12-07T02:13:04;0.98;;;0.88;;
56720;SDS011;53183;47.412;18.884;2023-12-07T02:15:33;0.80;;;0.75;;
56720;SDS011;53183;47.412;18.884;2023-12-07T02:21:30;1.50;;;0.80;;
56720;SDS011;53183;47.412;18.884;2023-12-07T02:24:07;1.98;;;1.35;;
56720;SDS011;53183;47.412;18.884;2023-12-07T02:26:37;2.53;;;1.25;;
56720;SDS011;53183;47.412;18.884;2023-12-07T02:29:07;2.35;;;1.48;;
56720;SDS011;53183;47.412;18.884;2023-12-07T02:31:35;2.75;;;1.67;;
56720;SDS011;53183;47.412;18.884;2023-12-07T02:34:04;1.83;;;1.37;;
56720;SDS011;53183;47.412;18.884;2023-12-07T02:36:36;5.07;;;1.75;;
56720;SDS011;53183;47.412;18.884;2023-12-07T02:39:15;1.95;;;1.35;;
56720;SDS011;53183;47.412;18.884;2023-12-07T02:41:48;3.00;;;1.83;;
56720;SDS011;53183;47.412;18.884;2023-12-07T02:44:18;3.37;;;1.40;;
56720;SDS011;53183;47.412;18.884;2023-12-07T02:46:49;4.75;;;2.47;;
56720;SDS011;53183;47.412;18.884;2023-12-07T02:49:18;2.25;;;1.73;;
56720;SDS011;53183;47.412;18.884;2023-12-07T02:51:51;3.60;;;2.58;;
56720;SDS011;53183;47.412;18.884;2023-12-07T02:54:20;3.78;;;2.33;;
56720;SDS011;53183;47.412;18.884;2023-12-07T02:56:48;5.40;;;3.00;;
56720;SDS011;53183;47.412;18.884;2023-12-07T02:59:20;4.78;;;2.65;;
56720;SDS011;53183;47.412;18.884;2023-12-07T03:01:47;5.85;;;3.62;;
56720;SDS011;53183;47.412;18.884;2023-12-07T03:04:17;4.37;;;2.65;;
56720;SDS011;53183;47.412;18.884;2023-12-07T03:06:48;5.22;;;2.75;;
56720;SDS011;53183;47.412;18.884;2023-12-07T03:09:16;4.37;;;2.80;;
56720;SDS011;53183;47.412;18.884;2023-12-07T03:11:44;3.65;;;2.37;;
56720;SDS011;53183;47.412;18.884;2023-12-07T03:14:15;4.28;;;2.65;;
56720;SDS011;53183;47.412;18.884;2023-12-07T03:16:45;4.82;;;2.92;;
56720;SDS011;53183;47.412;18.884;2023-12-07T03:19:16;5.15;;;3.30;;
56720;SDS011;53183;47.412;18.884;2023-12-07T03:21:45;6.05;;;3.03;;
56720;SDS011;53183;47.412;18.884;2023-12-07T03:24:15;5.82;;;3.03;;
56720;SDS011;53183;47.412;18.884;2023-12-07T03:26:45;6.43;;;3.60;;
56720;SDS011;53183;47.412;18.884;2023-12-07T03:29:19;5.68;;;2.85;;
56720;SDS011;53183;47.412;18.884;2023-12-07T03:31:48;10.38;;;3.72;;
56720;SDS011;53183;47.412;18.884;2023-12-07T03:34:18;6.22;;;3.55;;
56720;SDS011;53183;47.412;18.884;2023-12-07T03:36:47;7.32;;;3.80;;
56720;SDS011;53183;47.412;18.884;2023-12-07T03:39:17;5.85;;;3.70;;
56720;SDS011;53183;47.412;18.884;2023-12-07T03:41:56;5.30;;;3.20;;
56720;SDS011;53183;47.412;18.884;2023-12-07T03:44:25;6.68;;;4.05;;
56720;SDS011;53183;47.412;18.884;2023-12-07T03:46:56;7.18;;;3.40;;
56720;SDS011;53183;47.412;18.884;2023-12-07T03:49:25;7.70;;;4.55;;
56720;SDS011;53183;47.412;18.884;2023-12-07T03:51:52;7.22;;;3.78;;
56720;SDS011;53183;47.412;18.884;2023-12-07T03:54:26;7.67;;;3.77;;
56720;SDS011;53183;47.412;18.884;2023-12-07T03:56:58;9.38;;;4.72;;
56720;SDS011;53183;47.412;18.884;2023-12-07T03:59:31;11.50;;;5.30;;
56720;SDS011;53183;47.412;18.884;2023-12-07T04:02:00;8.30;;;4.82;;
56720;SDS011;53183;47.412;18.884;2023-12-07T04:04:31;7.12;;;4.20;;
56720;SDS011;53183;47.412;18.884;2023-12-07T04:06:59;8.23;;;4.57;;
56720;SDS011;53183;47.412;18.884;2023-12-07T04:09:27;6.82;;;4.70;;
56720;SDS011;53183;47.412;18.884;2023-12-07T04:11:57;6.10;;;3.42;;
56720;SDS011;53183;47.412;18.884;2023-12-07T04:14:25;6.22;;;3.85;;
56720;SDS011;53183;47.412;18.884;2023-12-07T04:17:05;7.65;;;4.32;;
56720;SDS011;53183;47.412;18.884;2023-12-07T04:19:34;6.95;;;4.53;;
56720;SDS011;53183;47.412;18.884;2023-12-07T04:22:06;7.55;;;4.18;;
56720;SDS011;53183;47.412;18.884;2023-12-07T04:24:36;10.52;;;4.00;;
56720;SDS011;53183;47.412;18.884;2023-12-07T04:27:08;7.97;;;3.95;;
56720;SDS011;53183;47.412;18.884;2023-12-07T04:29:36;9.98;;;3.47;;
56720;SDS011;53183;47.412;18.884;2023-12-07T04:32:06;5.60;;;2.92;;
56720;SDS011;53183;47.412;18.884;2023-12-07T04:34:37;5.95;;;3.28;;
56720;SDS011;53183;47.412;18.884;2023-12-07T04:37:06;6.00;;;2.80;;
56720;SDS011;53183;47.412;18.884;2023-12-07T04:39:36;5.00;;;2.95;;
56720;SDS011;53183;47.412;18.884;2023-12-07T04:42:08;4.20;;;2.40;;
56720;SDS011;53183;47.412;18.884;2023-12-07T04:44:39;6.22;;;2.83;;
56720;SDS011;53183;47.412;18.884;2023-12-07T04:47:08;6.40;;;2.97;;
56720;SDS011;53183;47.412;18.884;2023-12-07T04:49:38;4.90;;;2.28;;
56720;SDS011;53183;47.412;18.884;2023-12-07T04:52:08;5.15;;;2.58;;
56720;SDS011;53183;47.412;18.884;2023-12-07T04:54:36;3.58;;;2.58;;
56720;SDS011;53183;47.412;18.884;2023-12-07T04:57:10;5.62;;;2.58;;
56720;SDS011;53183;47.412;18.884;2023-12-07T04:59:39;5.07;;;2.80;;
56720;SDS011;53183;47.412;18.884;2023-12-07T05:05:40;4.12;;;1.87;;
56720;SDS011;53183;47.412;18.884;2023-12-07T05:08:12;6.30;;;2.72;;
56720;SDS011;53183;47.412;18.884;2023-12-07T05:10:43;2.85;;;1.90;;
56720;SDS011;53183;47.412;18.884;2023-12-07T05:13:14;2.95;;;2.08;;
56720;SDS011;53183;47.412;18.884;2023-12-07T05:15:44;4.90;;;2.58;;
56720;SDS011;53183;47.412;18.884;2023-12-07T05:18:15;7.32;;;2.55;;
56720;SDS011;53183;47.412;18.884;2023-12-07T05:20:44;4.55;;;2.35;;
56720;SDS011;53183;47.412;18.884;2023-12-07T05:23:20;9.93;;;2.35;;
56720;SDS011;53183;47.412;18.884;2023-12-07T05:25:52;2.85;;;1.90;;
56720;SDS011;53183;47.412;18.884;2023-12-07T05:28:30;5.78;;;2.95;;
56720;SDS011;53183;47.412;18.884;2023-12-07T05:30:59;3.90;;;2.60;;
56720;SDS011;53183;47.412;18.884;2023-12-07T05:33:32;7.53;;;2.42;;
56720;SDS011;53183;47.412;18.884;2023-12-07T05:39:38;6.07;;;3.00;;
56720;SDS011;53183;47.412;18.884;2023-12-07T05:42:19;6.60;;;3.62;;
56720;SDS011;53183;47.412;18.884;2023-12-07T05:44:56;7.45;;;4.20;;
56720;SDS011;53183;47.412;18.884;2023-12-07T05:47:46;9.38;;;4.75;;
56720;SDS011;53183;47.412;18.884;2023-12-07T05:50:17;14.27;;;4.12;;
56720;SDS011;53183;47.412;18.884;2023-12-07T05:52:52;10.07;;;5.45;;
56720;SDS011;53183;47.412;18.884;2023-12-07T05:59:06;9.93;;;5.87;;
56720;SDS011;53183;47.412;18.884;2023-12-07T06:02:17;9.68;;;4.68;;
56720;SDS011;53183;47.412;18.884;2023-12-07T06:08:59;8.68;;;5.07;;
56720;SDS011;53183;47.412;18.884;2023-12-07T06:11:41;13.55;;;5.10;;
56720;SDS011;53183;47.412;18.884;2023-12-07T06:14:28;9.35;;;4.50;;
56720;SDS011;53183;47.412;18.884;2023-12-07T06:17:27;11.43;;;4.62;;
56720;SDS011;53183;47.412;18.884;2023-12-07T06:19:56;7.22;;;3.85;;
56720;SDS011;53183;47.412;18.884;2023-12-07T06:22:24;13.52;;;4.40;;
56720;SDS011;53183;47.412;18.884;2023-12-07T06:24:53;8.65;;;3.90;;
56720;SDS011;53183;47.412;18.884;2023-12-07T06:27:21;8.30;;;4.80;;
56720;SDS011;53183;47.412;18.884;2023-12-07T06:29:48;14.02;;;4.45;;
56720;SDS011;53183;47.412;18.884;2023-12-07T06:32:16;11.95;;;5.22;;
56720;SDS011;53183;47.412;18.884;2023-12-07T06:34:45;10.98;;;4.90;;
56720;SDS011;53183;47.412;18.884;2023-12-07T06:37:13;14.90;;;5.78;;
56720;SDS011;53183;47.412;18.884;2023-12-07T06:39:45;8.25;;;3.97;;
56720;SDS011;53183;47.412;18.884;2023-12-07T06:42:13;11.55;;;5.82;;
56720;SDS011;53183;47.412;18.884;2023-12-07T06:44:43;12.10;;;5.37;;
56720;SDS011;53183;47.412;18.884;2023-12-07T06:47:16;9.35;;;4.43;;
56720;SDS011;53183;47.412;18.884;2023-12-07T06:49:45;12.02;;;5.80;;
56720;SDS011;53183;47.412;18.884;2023-12-07T06:54:47;8.60;;;4.55;;
56720;SDS011;53183;47.412;18.884;2023-12-07T06:57:14;11.25;;;5.50;;
56720;SDS011;53183;47.412;18.884;2023-12-07T06:59:42;12.63;;;5.50;;
56720;SDS011;53183;47.412;18.884;2023-12-07T07:02:10;8.77;;;4.93;;
56720;SDS011;53183;47.412;18.884;2023-12-07T07:04:37;11.70;;;6.78;;
56720;SDS011;53183;47.412;18.884;2023-12-07T07:07:07;12.55;;;4.53;;
56720;SDS011;53183;47.412;18.884;2023-12-07T07:09:34;12.07;;;5.50;;
56720;SDS011;53183;47.412;18.884;2023-12-07T07:12:02;13.23;;;5.97;;
56720;SDS011;53183;47.412;18.884;2023-12-07T07:14:31;12.85;;;6.22;;
56720;SDS011;53183;47.412;18.884;2023-12-07T07:16:58;14.50;;;6.25;;
56720;SDS011;53183;47.412;18.884;2023-12-07T07:19:26;9.57;;;5.75;;
56720;SDS011;53183;47.412;18.884;2023-12-07T07:21:54;16.55;;;8.35;;
56720;SDS011;53183;47.412;18.884;2023-12-07T07:24:21;13.13;;;5.57;;
56720;SDS011;53183;47.412;18.884;2023-12-07T07:26:49;13.25;;;5.60;;
56720;SDS011;53183;47.412;18.884;2023-12-07T07:29:17;11.27;;;5.85;;
56720;SDS011;53183;47.412;18.884;2023-12-07T07:31:45;13.00;;;6.25;;
56720;SDS011;53183;47.412;18.884;2023-12-07T07:34:12;15.13;;;5.97;;
56720;SDS011;53183;47.412;18.884;2023-12-07T07:36:40;14.57;;;6.75;;
56720;SDS011;53183;47.412;18.884;2023-12-07T07:39:08;17.33;;;6.68;;
56720;SDS011;53183;47.412;18.884;2023-12-07T07:41:37;15.35;;;6.25;;
56720;SDS011;53183;47.412;18.884;2023-12-07T07:44:04;16.35;;;6.12;;
56720;SDS011;53183;47.412;18.884;2023-12-07T07:46:34;13.18;;;6.12;;
56720;SDS011;53183;47.412;18.884;2023-12-07T07:49:01;11.27;;;5.87;;
56720;SDS011;53183;47.412;18.884;2023-12-07T07:51:31;16.20;;;8.02;;
56720;SDS011;53183;47.412;18.884;2023-12-07T07:53:59;12.23;;;6.40;;
56720;SDS011;53183;47.412;18.884;2023-12-07T07:56:27;16.95;;;6.87;;
56720;SDS011;53183;47.412;18.884;2023-12-07T07:58:56;12.55;;;7.40;;
56720;SDS011;53183;47.412;18.884;2023-12-07T08:01:27;13.82;;;5.53;;
56720;SDS011;53183;47.412;18.884;2023-12-07T08:03:55;9.38;;;5.22;;
56720;SDS011;53183;47.412;18.884;2023-12-07T08:06:23;16.83;;;6.75;;
56720;SDS011;53183;47.412;18.884;2023-12-07T08:08:50;11.90;;;4.45;;
56720;SDS011;53183;47.412;18.884;2023-12-07T08:11:21;12.73;;;6.00;;
56720;SDS011;53183;47.412;18.884;2023-12-07T08:13:49;10.48;;;5.22;;
56720;SDS011;53183;47.412;18.884;2023-12-07T08:16:17;12.63;;;6.07;;
56720;SDS011;53183;47.412;18.884;2023-12-07T08:18:46;11.23;;;5.05;;
56720;SDS011;53183;47.412;18.884;2023-12-07T08:21:21;9.13;;;5.18;;
56720;SDS011;53183;47.412;18.884;2023-12-07T08:23:55;12.52;;;5.15;;
56720;SDS011;53183;47.412;18.884;2023-12-07T08:26:24;11.50;;;5.05;;
56720;SDS011;53183;47.412;18.884;2023-12-07T08:28:55;23.10;;;5.35;;
56720;SDS011;53183;47.412;18.884;2023-12-07T08:31:22;17.58;;;5.32;;
56720;SDS011;53183;47.412;18.884;2023-12-07T08:33:51;10.05;;;5.93;;
56720;SDS011;53183;47.412;18.884;2023-12-07T08:36:21;9.10;;;4.53;;
56720;SDS011;53183;47.412;18.884;2023-12-07T08:38:50;13.10;;;4.97;;
56720;SDS011;53183;47.412;18.884;2023-12-07T08:41:18;8.38;;;4.82;;
56720;SDS011;53183;47.412;18.884;2023-12-07T08:43:45;10.65;;;5.35;;
56720;SDS011;53183;47.412;18.884;2023-12-07T08:46:14;13.05;;;5.20;;
56720;SDS011;53183;47.412;18.884;2023-12-07T08:48:41;9.02;;;5.07;;
56720;SDS011;53183;47.412;18.884;2023-12-07T08:51:10;6.65;;;3.78;;
56720;SDS011;53183;47.412;18.884;2023-12-07T08:53:39;14.52;;;4.68;;
56720;SDS011;53183;47.412;18.884;2023-12-07T08:56:07;9.68;;;4.15;;
56720;SDS011;53183;47.412;18.884;2023-12-07T08:58:35;5.37;;;3.37;;
56720;SDS011;53183;47.412;18.884;2023-12-07T09:01:02;9.27;;;5.15;;
56720;SDS011;53183;47.412;18.884;2023-12-07T09:03:30;11.27;;;5.55;;
56720;SDS011;53183;47.412;18.884;2023-12-07T09:06:00;13.23;;;5.65;;
56720;SDS011;53183;47.412;18.884;2023-12-07T09:08:28;7.85;;;3.95;;
56720;SDS011;53183;47.412;18.884;2023-12-07T09:10:55;11.40;;;5.00;;
56720;SDS011;53183;47.412;18.884;2023-12-07T09:13:24;8.80;;;4.68;;
56720;SDS011;53183;47.412;18.884;2023-12-07T09:15:51;11.43;;;5.10;;
56720;SDS011;53183;47.412;18.884;2023-12-07T09:18:19;10.82;;;4.65;;
56720;SDS011;53183;47.412;18.884;2023-12-07T09:20:47;12.63;;;5.40;;
56720;SDS011;53183;47.412;18.884;2023-12-07T09:23:16;10.55;;;5.95;;
56720;SDS011;53183;47.412;18.884;2023-12-07T09:25:47;8.95;;;4.25;;
56720;SDS011;53183;47.412;18.884;2023-12-07T09:28:15;7.62;;;4.47;;
56720;SDS011;53183;47.412;18.884;2023-12-07T09:30:42;15.30;;;5.53;;
56720;SDS011;53183;47.412;18.884;2023-12-07T09:33:14;11.48;;;5.03;;
56720;SDS011;53183;47.412;18.884;2023-12-07T09:35:42;9.80;;;5.50;;
56720;SDS011;53183;47.412;18.884;2023-12-07T09:38:09;11.02;;;6.82;;
56720;SDS011;53183;47.412;18.884;2023-12-07T09:40:37;12.48;;;5.32;;
56720;SDS011;53183;47.412;18.884;2023-12-07T09:43:05;8.82;;;4.87;;
56720;SDS011;53183;47.412;18.884;2023-12-07T09:45:32;7.85;;;4.32;;
56720;SDS011;53183;47.412;18.884;2023-12-07T09:48:01;10.57;;;5.87;;
56720;SDS011;53183;47.412;18.884;2023-12-07T09:50:30;12.95;;;4.87;;
56720;SDS011;53183;47.412;18.884;2023-12-07T09:52:58;7.72;;;4.90;;
56720;SDS011;53183;47.412;18.884;2023-12-07T09:55:35;9.70;;;4.85;;
56720;SDS011;53183;47.412;18.884;2023-12-07T09:58:05;8.20;;;4.57;;
56720;SDS011;53183;47.412;18.884;2023-12-07T10:00:36;8.75;;;5.07;;
56720;SDS011;53183;47.412;18.884;2023-12-07T10:03:05;7.47;;;3.90;;
56720;SDS011;53183;47.412;18.884;2023-12-07T10:05:55;7.15;;;4.12;;
56720;SDS011;53183;47.412;18.884;2023-12-07T10:08:25;8.85;;;3.72;;
56720;SDS011;53183;47.412;18.884;2023-12-07T10:13:36;7.40;;;4.25;;
56720;SDS011;53183;47.412;18.884;2023-12-07T10:16:11;8.23;;;4.53;;
56720;SDS011;53183;47.412;18.884;2023-12-07T10:18:42;10.05;;;3.65;;
56720;SDS011;53183;47.412;18.884;2023-12-07T10:21:11;8.75;;;4.15;;
56720;SDS011;53183;47.412;18.884;2023-12-07T10:23:41;10.63;;;4.40;;
56720;SDS011;53183;47.412;18.884;2023-12-07T10:26:16;7.00;;;4.00;;
56720;SDS011;53183;47.412;18.884;2023-12-07T10:28:48;10.60;;;4.60;;
56720;SDS011;53183;47.412;18.884;2023-12-07T10:31:20;14.18;;;4.47;;
56720;SDS011;53183;47.412;18.884;2023-12-07T10:33:48;9.85;;;4.78;;
56720;SDS011;53183;47.412;18.884;2023-12-07T10:36:16;7.22;;;4.70;;
56720;SDS011;53183;47.412;18.884;2023-12-07T10:38:43;6.68;;;4.75;;
56720;SDS011;53183;47.412;18.884;2023-12-07T10:41:12;13.55;;;5.85;;
56720;SDS011;53183;47.412;18.884;2023-12-07T10:43:42;12.73;;;5.20;;
56720;SDS011;53183;47.412;18.884;2023-12-07T10:46:13;13.13;;;5.37;;
56720;SDS011;53183;47.412;18.884;2023-12-07T10:48:45;10.23;;;6.10;;
56720;SDS011;53183;47.412;18.884;2023-12-07T10:51:23;12.82;;;5.75;;
56720;SDS011;53183;47.412;18.884;2023-12-07T10:53:58;9.25;;;5.97;;
56720;SDS011;53183;47.412;18.884;2023-12-07T10:56:43;9.43;;;5.57;;
56720;SDS011;53183;47.412;18.884;2023-12-07T10:59:13;10.85;;;5.22;;
56720;SDS011;53183;47.412;18.884;2023-12-07T11:01:56;10.73;;;5.32;;
56720;SDS011;53183;47.412;18.884;2023-12-07T11:04:26;12.07;;;6.72;;
56720;SDS011;53183;47.412;18.884;2023-12-07T11:06:55;12.77;;;6.78;;
56720;SDS011;53183;47.412;18.884;2023-12-07T11:09:28;11.90;;;6.75;;
56720;SDS011;53183;47.412;18.884;2023-12-07T11:12:07;13.57;;;6.87;;
56720;SDS011;53183;47.412;18.884;2023-12-07T11:14:40;8.88;;;5.68;;
56720;SDS011;53183;47.412;18.884;2023-12-07T11:17:10;13.95;;;6.87;;
56720;SDS011;53183;47.412;18.884;2023-12-07T11:22:10;16.23;;;8.43;;
56720;SDS011;53183;47.412;18.884;2023-12-07T11:25:00;15.60;;;8.20;;
56720;SDS011;53183;47.412;18.884;2023-12-07T11:27:29;14.90;;;7.68;;
56720;SDS011;53183;47.412;18.884;2023-12-07T11:30:00;15.50;;;8.35;;
56720;SDS011;53183;47.412;18.884;2023-12-07T11:32:30;22.35;;;8.57;;
56720;SDS011;53183;47.412;18.884;2023-12-07T11:35:02;16.52;;;8.13;;
56720;SDS011;53183;47.412;18.884;2023-12-07T11:40:30;18.67;;;9.10;;
56720;SDS011;53183;47.412;18.884;2023-12-07T11:43:01;17.50;;;8.30;;
56720;SDS011;53183;47.412;18.884;2023-12-07T11:45:37;21.48;;;8.88;;
56720;SDS011;53183;47.412;18.884;2023-12-07T11:48:12;14.43;;;8.20;;
56720;SDS011;53183;47.412;18.884;2023-12-07T11:50:53;19.23;;;9.65;;
56720;SDS011;53183;47.412;18.884;2023-12-07T11:53:23;19.00;;;9.05;;
56720;SDS011;53183;47.412;18.884;2023-12-07T11:55:55;21.33;;;9.48;;
56720;SDS011;53183;47.412;18.884;2023-12-07T11:58:27;18.48;;;9.60;;
56720;SDS011;53183;47.412;18.884;2023-12-07T12:00:55;22.05;;;10.38;;
56720;SDS011;53183;47.412;18.884;2023-12-07T12:03:25;24.27;;;10.35;;
56720;SDS011;53183;47.412;18.884;2023-12-07T12:05:56;18.48;;;10.20;;
56720;SDS011;53183;47.412;18.884;2023-12-07T12:08:26;19.98;;;10.27;;
56720;SDS011;53183;47.412;18.884;2023-12-07T12:10:54;24.95;;;10.35;;
56720;SDS011;53183;47.412;18.884;2023-12-07T12:13:26;20.62;;;9.68;;
56720;SDS011;53183;47.412;18.884;2023-12-07T12:15:57;23.08;;;8.95;;
56720;SDS011;53183;47.412;18.884;2023-12-07T12:18:34;21.77;;;10.88;;
56720;SDS011;53183;47.412;18.884;2023-12-07T12:21:07;20.67;;;10.48;;
56720;SDS011;53183;47.412;18.884;2023-12-07T12:23:36;19.17;;;9.70;;
56720;SDS011;53183;47.412;18.884;2023-12-07T12:26:06;27.83;;;11.02;;
56720;SDS011;53183;47.412;18.884;2023-12-07T12:28:36;20.77;;;9.93;;
56720;SDS011;53183;47.412;18.884;2023-12-07T12:31:10;24.45;;;11.48;;
56720;SDS011;53183;47.412;18.884;2023-12-07T12:33:38;24.73;;;10.75;;
56720;SDS011;53183;47.412;18.884;2023-12-07T12:36:06;23.20;;;10.88;;
56720;SDS011;53183;47.412;18.884;2023-12-07T12:38:37;22.33;;;10.38;;
56720;SDS011;53183;47.412;18.884;2023-12-07T12:41:10;22.37;;;10.20;;
56720;SDS011;53183;47.412;18.884;2023-12-07T12:43:39;22.75;;;10.35;;
56720;SDS011;53183;47.412;18.884;2023-12-07T12:46:07;20.48;;;9.88;;
56720;SDS011;53183;47.412;18.884;2023-12-07T12:48:35;20.62;;;10.55;;
56720;SDS011;53183;47.412;18.884;2023-12-07T12:51:12;19.05;;;10.02;;
56720;SDS011;53183;47.412;18.884;2023-12-07T12:53:46;21.37;;;9.73;;
56720;SDS011;53183;47.412;18.884;2023-12-07T12:56:19;22.90;;;10.93;;
56720;SDS011;53183;47.412;18.884;2023-12-07T12:58:51;20.15;;;10.73;;
56720;SDS011;53183;47.412;18.884;2023-12-07T13:01:19;22.98;;;10.43;;
56720;SDS011;53183;47.412;18.884;2023-12-07T13:03:49;21.70;;;10.50;;
56720;SDS011;53183;47.412;18.884;2023-12-07T13:06:19;24.20;;;9.73;;
56720;SDS011;53183;47.412;18.884;2023-12-07T13:08:47;19.17;;;9.75;;
56720;SDS011;53183;47.412;18.884;2023-12-07T13:11:15;21.65;;;10.98;;
56720;SDS011;53183;47.412;18.884;2023-12-07T13:13:44;22.05;;;10.27;;
56720;SDS011;53183;47.412;18.884;2023-12-07T13:16:12;20.92;;;10.25;;
56720;SDS011;53183;47.412;18.884;2023-12-07T13:18:41;17.45;;;10.70;;
56720;SDS011;53183;47.412;18.884;2023-12-07T13:21:08;23.42;;;10.57;;
56720;SDS011;53183;47.412;18.884;2023-12-07T13:23:37;24.63;;;11.82;;
56720;SDS011;53183;47.412;18.884;2023-12-07T13:26:06;24.00;;;12.10;;
56720;SDS011;53183;47.412;18.884;2023-12-07T13:28:34;22.87;;;10.10;;
56720;SDS011;53183;47.412;18.884;2023-12-07T13:31:01;19.98;;;10.43;;
56720;SDS011;53183;47.412;18.884;2023-12-07T13:33:29;29.80;;;11.95;;
56720;SDS011;53183;47.412;18.884;2023-12-07T13:36:09;24.30;;;12.05;;
56720;SDS011;53183;47.412;18.884;2023-12-07T13:38:39;26.30;;;10.60;;
56720;SDS011;53183;47.412;18.884;2023-12-07T13:41:10;26.25;;;10.43;;
56720;SDS011;53183;47.412;18.884;2023-12-07T13:43:37;24.48;;;11.40;;
56720;SDS011;53183;47.412;18.884;2023-12-07T13:46:04;28.40;;;11.77;;
56720;SDS011;53183;47.412;18.884;2023-12-07T13:48:33;24.10;;;12.15;;
56720;SDS011;53183;47.412;18.884;2023-12-07T13:51:01;25.45;;;12.02;;
56720;SDS011;53183;47.412;18.884;2023-12-07T13:53:31;26.62;;;12.57;;
56720;SDS011;53183;47.412;18.884;2023-12-07T13:56:00;26.35;;;12.68;;
56720;SDS011;53183;47.412;18.884;2023-12-07T13:58:28;29.85;;;12.27;;
56720;SDS011;53183;47.412;18.884;2023-12-07T14:00:55;28.77;;;13.45;;
56720;SDS011;53183;47.412;18.884;2023-12-07T14:03:24;26.15;;;12.48;;
56720;SDS011;53183;47.412;18.884;2023-12-07T14:05:56;37.47;;;14.48;;
56720;SDS011;53183;47.412;18.884;2023-12-07T14:08:35;31.08;;;14.43;;
56720;SDS011;53183;47.412;18.884;2023-12-07T14:11:02;37.38;;;14.85;;
56720;SDS011;53183;47.412;18.884;2023-12-07T14:13:30;27.25;;;13.70;;
56720;SDS011;53183;47.412;18.884;2023-12-07T14:16:02;23.65;;;11.75;;
56720;SDS011;53183;47.412;18.884;2023-12-07T14:18:43;29.95;;;12.68;;
56720;SDS011;53183;47.412;18.884;2023-12-07T14:21:27;34.05;;;13.55;;
56720;SDS011;53183;47.412;18.884;2023-12-07T14:24:05;34.08;;;11.98;;
56720;SDS011;53183;47.412;18.884;2023-12-07T14:26:34;32.33;;;13.48;;
56720;SDS011;53183;47.412;18.884;2023-12-07T14:29:02;34.53;;;14.82;;
56720;SDS011;53183;47.412;18.884;2023-12-07T14:31:31;31.33;;;13.15;;
56720;SDS011;53183;47.412;18.884;2023-12-07T14:34:00;29.83;;;12.73;;
56720;SDS011;53183;47.412;18.884;2023-12-07T14:36:28;30.40;;;14.50;;
56720;SDS011;53183;47.412;18.884;2023-12-07T14:38:57;29.00;;;14.38;;
56720;SDS011;53183;47.412;18.884;2023-12-07T14:41:25;33.78;;;12.85;;
56720;SDS011;53183;47.412;18.884;2023-12-07T14:43:52;37.28;;;14.40;;
56720;SDS011;53183;47.412;18.884;2023-12-07T14:46:20;37.35;;;15.13;;
56720;SDS011;53183;47.412;18.884;2023-12-07T14:48:52;33.25;;;15.18;;
56720;SDS011;53183;47.412;18.884;2023-12-07T14:51:21;26.42;;;13.43;;
56720;SDS011;53183;47.412;18.884;2023-12-07T14:53:49;32.65;;;15.05;;
56720;SDS011;53183;47.412;18.884;2023-12-07T14:56:17;36.00;;;15.93;;
56720;SDS011;53183;47.412;18.884;2023-12-07T14:58:44;38.70;;;14.65;;
56720;SDS011;53183;47.412;18.884;2023-12-07T15:01:12;31.90;;;14.43;;
56720;SDS011;53183;47.412;18.884;2023-12-07T15:03:41;33.05;;;14.43;;
56720;SDS011;53183;47.412;18.884;2023-12-07T15:06:09;37.25;;;16.17;;
56720;SDS011;53183;47.412;18.884;2023-12-07T15:08:37;36.50;;;14.43;;
56720;SDS011;53183;47.412;18.884;2023-12-07T15:11:06;34.42;;;13.80;;
56720;SDS011;53183;47.412;18.884;2023-12-07T15:13:35;37.40;;;14.30;;